Main page
METAR-TAF:

METAR-TAF

Airports :

Redstone Army Airfield

Redstone Arsenal, Alabama, United States

latitude: 34-40-43N, longitude: 086-41-05W, elevation: 686 ft

Current weather observation

The report was made 51 minutes ago, at 10:58 UTC
Wind 3 mph from the South/Southwest
Temperature 36°F
Humidity 80%
Pressure 30.25 in. Hg
Visibility: 10 miles
Few clouds at a height of 11000 ft
Scattered clouds at a height of 20000 ft

METAR: KHUA 231058Z AUTO 20003KT 10SM FEW110 SCT200 02/M01 A3025 RMK AO2 SLP247 T00191007

Time: 05:49 (11:49 UTC)


TAF: missing

Weather observations and forecasts of more than 4000 airports (METAR and TAF reports).

The available stations are represented by yellow and red dots on the map.

Hover mouse over dot to see the name of the station.

Then click to see weather observations and forecasts.

To change the map : click on the green buttons with a black cross to zoom in, on the green button with a dash to zoom out, or on the green arrows for adjacent maps.


METAR-TAF: